This is the latest recevied weather packets stored in our database for station/object KC2G. If no packets are shown the sender has not sent any weather packets the latest 10 day(s).
| Time | Temp. | Humidity | Pressure | Rain* | Wind** | Luminosity | Snow |
|---|---|---|---|---|---|---|---|
| 1777357855 | 5.56° C | 98% | 1022.2 hPa | 0 mm | 0 m/s | - | - |
| 1777356954 | 5.56° C | 98% | 1022.3 hPa | 0 mm | 0 m/s | - | - |
| 1777356055 | 6.11° C | 97% | 1022.4 hPa | 0 mm | 0 m/s | - | - |
| 1777355154 | 6.11° C | 96% | 1022.6 hPa | 0 mm | 0 m/s | - | - |
| 1777354259 | 6.11° C | 95% | 1022.5 hPa | 0 mm | 0 m/s | - | - |
| 1777353354 | 6.11° C | 94% | 1022.5 hPa | 0 mm | 0.45 m/s, 251° | - | - |
| 1777352455 | 6.67° C | 93% | 1022.4 hPa | 0 mm | 0 m/s | - | - |
| 1777351615 | 6.67° C | 92% | 1023.1 hPa | 0 mm | 0 m/s | - | - |
| 1777351554 | 6.67° C | 92% | 1023.1 hPa | 0 mm | 0 m/s | - | - |
| 1777350655 | 7.22° C | 90% | 1023.3 hPa | 0 mm | 0 m/s | - | - |
| 1777349755 | 7.22° C | 90% | 1023.4 hPa | 0 mm | 0 m/s | - | - |
| 1777348855 | 7.78° C | 88% | 1023.5 hPa | 0 mm | 0 m/s | - | - |
| 1777347955 | 8.33° C | 85% | 1023.6 hPa | 0 mm | 0 m/s | - | - |
| 1777347370 | 8.33° C | 83% | 1023.8 hPa | 0 mm | 0 m/s | - | - |
| 1777347055 | 8.33° C | 83% | 1023.8 hPa | 0 mm | 0 m/s | - | - |
| 1777346155 | 8.89° C | 81% | 1023.9 hPa | 0 mm | 0 m/s | - | - |
| 1777345896 | 8.89° C | 78% | 1023.9 hPa | 0 mm | 0 m/s | - | - |
| 1777345255 | 8.89° C | 78% | 1023.9 hPa | 0 mm | 0 m/s | - | - |
| 1777344355 | 9.44° C | 76% | 1023.9 hPa | 0 mm | 0 m/s | - | - |
| 1777343455 | 10° C | 75% | 1023.9 hPa | 0 mm | 0 m/s | - | - |
| 1777342555 | 10.56° C | 70% | 1023.7 hPa | 0 mm | 0 m/s | - | - |
| 1777341655 | 11.11° C | 67% | 1023.7 hPa | 0 mm | 0 m/s | - | - |
| 1777340755 | 11.67° C | 63% | 1023.6 hPa | 0 mm | 0 m/s | - | - |
| 1777339855 | 12.22° C | 61% | 1023.3 hPa | 0 mm | 0.45 m/s, 97° | - | - |
| 1777338954 | 12.22° C | 60% | 1023.2 hPa | 0 mm | 0.45 m/s, 100° | - | - |
* Rain latest hour (hover to see other rain measurements)
** Current wind speed in m/s (hover to see current wind gust speed)